Ms Signal — SFWL — position and weather

sailwx.info

Track history (hours):
 
Tides and Currents Weather Stations Pressure Air Temp Water Temp Dewpoint Dewpoint Depression Visibility Wind Speed Wind Dir Waves Ship Positions

Ms Signal

Last reported at 2018-Apr-23 10:41 UTC. Time now 2018-Apr-24 07:06 UTC.
Position N 59°21' E 018°08'.

Length 16 m.

Type: Diving. MMSI: 265648340.

Date/timePositionNaut miles runAvg speedWind from/ knotsBaromVisibWave heightAir tempDewpointWater temp
2018-Apr-23 10:41N 59°21' E 018°08'210.2
2018-Apr-23 10:30N 59°20' E 018°11'1 1.5
2018-Apr-23 10:00N 59°20' E 018°13'0 0.1
2018-Apr-23 09:29N 59°20' E 018°13'3 4.7
2018-Apr-23 08:56N 59°21' E 018°08'0 0.0
2018-Apr-23 05:04N 59°21' E 018°08'0 0.2
2018-Apr-23 04:58N 59°21' E 018°08'  
2018-Apr-20 08:29N 59°21' E 018°08'0 0.1
2018-Apr-20 07:57N 59°21' E 018°08'0 0.2
2018-Apr-20 07:29N 59°21' E 018°08'0 0.0
2018-Apr-20 06:59N 59°21' E 018°08'0 0.1
2018-Apr-20 06:28N 59°21' E 018°08'0 0.0
2018-Apr-20 05:58N 59°21' E 018°08'0 0.0
2018-Apr-20 05:28N 59°21' E 018°08'0 0.0
2018-Apr-20 04:58N 59°21' E 018°08'0 0.1
2018-Apr-20 04:30N 59°21' E 018°08'  
2018-Apr-17 13:39N 59°21' E 018°08'0 3.3
2018-Apr-17 13:30N 59°20' E 018°09'2 2.9
2018-Apr-17 12:56N 59°19' E 018°08'0 0.5
2018-Apr-17 12:30N 59°19' E 018°09'2 3.4
2018-Apr-17 12:00N 59°21' E 018°08'0 0.0
2018-Apr-17 11:30N 59°21' E 018°08'2 3.4
2018-Apr-17 10:59N 59°19' E 018°08'0 0.0
2018-Apr-17 10:29N 59°19' E 018°08'0 0.0
2018-Apr-17 09:59N 59°19' E 018°08'0 0.0
2018-Apr-17 09:29N 59°19' E 018°08'1 2.2
2018-Apr-17 08:59N 59°20' E 018°09'1 2.1
2018-Apr-17 08:28N 59°21' E 018°08'0 0.0
2018-Apr-17 07:58N 59°21' E 018°08'0 0.0
2018-Apr-17 07:28N 59°21' E 018°08'0 0.0
2018-Apr-17 06:58N 59°21' E 018°08'2 3.8
2018-Apr-17 06:30N 59°19' E 018°09'0 0.6
2018-Apr-17 06:00N 59°19' E 018°08'0 0.8
2018-Apr-17 05:30N 59°19' E 018°09'1 0.1
2018-Apr-16 14:48N 59°20' E 018°09'1 4.8
2018-Apr-16 14:30N 59°19' E 018°07'2 4.4
2018-Apr-16 14:00N 59°18' E 018°03'2 4.6
2018-Apr-16 13:30N 59°19' E 017°59'3 0.6
2018-Apr-16 07:55N 59°17' E 017°53'3 6.4
2018-Apr-16 07:29N 59°19' E 017°58'2 3.1
2018-Apr-16 06:52N 59°19' E 018°01'0 0.1
2018-Apr-16 06:30N 59°19' E 018°01'2 4.5
2018-Apr-16 06:00N 59°18' E 018°06'2 4.7
2018-Apr-16 05:30N 59°20' E 018°09'1 2.1
2018-Apr-16 04:59N 59°21' E 018°08'0 0.0
2018-Apr-15 13:04N 59°21' E 018°08'0 4.6
2018-Apr-15 13:00N 59°21' E 018°08'2 0.8
2018-Apr-15 09:57N 59°23' E 018°05'0 0.2
2018-Apr-15 09:30N 59°23' E 018°05'0 0.0
2018-Apr-15 09:00N 59°23' E 018°05'0 0.0
2018-Apr-15 08:27N 59°23' E 018°05'0 0.1
2018-Apr-15 08:00N 59°23' E 018°05'0 0.0
2018-Apr-15 07:30N 59°23' E 018°05'0 0.0
2018-Apr-15 06:57N 59°23' E 018°05'1 1.3
2018-Apr-15 06:27N 59°22' E 018°05'  
Track history (hours):
 
Tides and Currents Weather Stations Pressure Air Temp Water Temp Dewpoint Dewpoint Depression Visibility Wind Speed Wind Dir Waves Ship Positions

Ms Signal

Last reported at 2018-Apr-23 10:41 UTC. Time now 2018-Apr-24 07:06 UTC.
Position N 59°21' E 018°08'.

Length 16 m.

Type: Diving. MMSI: 265648340.

Date/timePositionNaut miles runAvg speedWind from/ knotsBaromVisibWave heightAir tempDewpointWater temp
2018-Apr-23 10:41N 59°21' E 018°08'210.2
2018-Apr-23 10:30N 59°20' E 018°11'1 1.5
2018-Apr-23 10:00N 59°20' E 018°13'0 0.1
2018-Apr-23 09:29N 59°20' E 018°13'3 4.7
2018-Apr-23 08:56N 59°21' E 018°08'0 0.0
2018-Apr-23 05:04N 59°21' E 018°08'0 0.2
2018-Apr-23 04:58N 59°21' E 018°08'  
2018-Apr-20 08:29N 59°21' E 018°08'0 0.1
2018-Apr-20 07:57N 59°21' E 018°08'0 0.2
2018-Apr-20 07:29N 59°21' E 018°08'0 0.0
2018-Apr-20 06:59N 59°21' E 018°08'0 0.1
2018-Apr-20 06:28N 59°21' E 018°08'0 0.0
2018-Apr-20 05:58N 59°21' E 018°08'0 0.0
2018-Apr-20 05:28N 59°21' E 018°08'0 0.0
2018-Apr-20 04:58N 59°21' E 018°08'0 0.1
2018-Apr-20 04:30N 59°21' E 018°08'  
2018-Apr-17 13:39N 59°21' E 018°08'0 3.3
2018-Apr-17 13:30N 59°20' E 018°09'2 2.9
2018-Apr-17 12:56N 59°19' E 018°08'0 0.5
2018-Apr-17 12:30N 59°19' E 018°09'2 3.4
2018-Apr-17 12:00N 59°21' E 018°08'0 0.0
2018-Apr-17 11:30N 59°21' E 018°08'2 3.4
2018-Apr-17 10:59N 59°19' E 018°08'0 0.0
2018-Apr-17 10:29N 59°19' E 018°08'0 0.0
2018-Apr-17 09:59N 59°19' E 018°08'0 0.0
2018-Apr-17 09:29N 59°19' E 018°08'1 2.2
2018-Apr-17 08:59N 59°20' E 018°09'1 2.1
2018-Apr-17 08:28N 59°21' E 018°08'0 0.0
2018-Apr-17 07:58N 59°21' E 018°08'0 0.0
2018-Apr-17 07:28N 59°21' E 018°08'0 0.0
2018-Apr-17 06:58N 59°21' E 018°08'2 3.8
2018-Apr-17 06:30N 59°19' E 018°09'0 0.6
2018-Apr-17 06:00N 59°19' E 018°08'0 0.8
2018-Apr-17 05:30N 59°19' E 018°09'1 0.1
2018-Apr-16 14:48N 59°20' E 018°09'1 4.8
2018-Apr-16 14:30N 59°19' E 018°07'2 4.4
2018-Apr-16 14:00N 59°18' E 018°03'2 4.6
2018-Apr-16 13:30N 59°19' E 017°59'3 0.6
2018-Apr-16 07:55N 59°17' E 017°53'3 6.4
2018-Apr-16 07:29N 59°19' E 017°58'2 3.1
2018-Apr-16 06:52N 59°19' E 018°01'0 0.1
2018-Apr-16 06:30N 59°19' E 018°01'2 4.5
2018-Apr-16 06:00N 59°18' E 018°06'2 4.7
2018-Apr-16 05:30N 59°20' E 018°09'1 2.1
2018-Apr-16 04:59N 59°21' E 018°08'0 0.0
2018-Apr-15 13:04N 59°21' E 018°08'0 4.6
2018-Apr-15 13:00N 59°21' E 018°08'2 0.8
2018-Apr-15 09:57N 59°23' E 018°05'0 0.2
2018-Apr-15 09:30N 59°23' E 018°05'0 0.0
2018-Apr-15 09:00N 59°23' E 018°05'0 0.0
2018-Apr-15 08:27N 59°23' E 018°05'0 0.1
2018-Apr-15 08:00N 59°23' E 018°05'0 0.0
2018-Apr-15 07:30N 59°23' E 018°05'0 0.0
2018-Apr-15 06:57N 59°23' E 018°05'1 1.3
2018-Apr-15 06:27N 59°22' E 018°05'  

Dump ship's entire track history